Terminal Aerodrome Forecast
Issued by NWS Cleveland, OH

Home | Current Version | Previous Version | Text Only | Print | Product List | Glossary Off
Versions: 1 2 3 4 5 6 7 8 9 10 11 12 13 14 15 16 17 18 19 20 21

000
FTUS41 KCLE 240400 AAA
TAFCAK
TAF AMD
KCAK 240433Z 2405/2424 14018G28KT 4SM -SHRA SCT012 OVC022
      TEMPO 2406/2407 OVC012
     FM240800 18018G28KT P6SM VCSH SCT012 OVC030
     FM241800 22028G40KT P6SM OVC035
      TEMPO 2418/2420 3SM -SHRA=

USA.gov is the U.S. government's official web portal to all federal, state and local government web resources and services.